Time;durP1;ratioP1;P1;durP2;ratioP2;P2;SDS_P1;SDS_P2;PMS_P1;PMS_P2;Temp;Humidity;BMP_temperature;BMP_pressure;BME280_temperature;BME280_humidity;BME280_pressure;Samples;Min_cycle;Max_cycle;Signal;HPM_P1;HPM_P2
2024/02/24 00:00:01;;;;;;;4.53;2.28;;;;;;;-0.38;100.00;94398.78;1029949;28;20046;-63
2024/02/24 00:00:31;;;;;;;4.20;2.10;;;;;;;-0.33;100.00;94411.00;1030646;28;20026;-63
2024/02/24 00:01:02;;;;;;;2.95;1.75;;;;;;;-0.36;100.00;94407.09;1031300;28;20551;-62
2024/02/24 00:01:33;;;;;;;3.90;1.65;;;;;;;-0.33;100.00;94409.22;1031497;28;20022;-63
2024/02/24 00:02:03;;;;;;;3.45;2.05;;;;;;;-0.33;100.00;94406.63;1032381;28;20264;-63
2024/02/24 00:02:34;;;;;;;3.30;2.20;;;;;;;-0.33;100.00;94411.78;1031488;28;20018;-64
2024/02/24 00:03:04;;;;;;;6.30;2.28;;;;;;;-0.32;100.00;94408.19;1035538;28;20030;-64
2024/02/24 00:03:35;;;;;;;2.72;1.63;;;;;;;-0.32;100.00;94408.19;1039179;28;20022;-63
2024/02/24 00:04:05;;;;;;;5.43;1.60;;;;;;;-0.40;100.00;94397.44;1038644;28;20017;-64
2024/02/24 00:04:35;;;;;;;3.53;1.90;;;;;;;-0.33;100.00;94411.78;1039596;28;20029;-63
2024/02/24 00:05:07;;;;;;;3.28;1.60;;;;;;;-0.38;100.00;94403.16;1039419;28;20501;-63
2024/02/24 00:05:38;;;;;;;3.88;2.00;;;;;;;-0.33;100.00;94406.63;1031249;28;20054;-64
2024/02/24 00:06:08;;;;;;;3.33;1.98;;;;;;;-0.31;100.00;94412.34;1031548;28;20265;-63
2024/02/24 00:06:39;;;;;;;2.17;1.73;;;;;;;-0.31;100.00;94414.91;1035360;28;20026;-63
2024/02/24 00:07:09;;;;;;;3.80;1.63;;;;;;;-0.30;100.00;94419.06;1031540;28;20112;-64
2024/02/24 00:07:39;;;;;;;5.75;1.67;;;;;;;-0.30;100.00;94423.44;1035313;28;20029;-64
2024/02/24 00:08:10;;;;;;;4.20;1.83;;;;;;;-0.30;100.00;94416.50;1031381;28;20019;-64
2024/02/24 00:08:41;;;;;;;2.53;1.63;;;;;;;-0.34;100.00;94415.34;1031224;28;20023;-64
2024/02/24 00:09:12;;;;;;;3.28;2.00;;;;;;;-0.32;100.00;94423.66;1027527;28;20038;-63
2024/02/24 00:09:43;;;;;;;3.03;1.60;;;;;;;-0.30;100.00;94424.22;1035486;28;20260;-63
2024/02/24 00:10:13;;;;;;;3.38;1.92;;;;;;;-0.33;100.00;94416.94;1026745;28;20034;-63
2024/02/24 00:10:44;;;;;;;2.08;1.65;;;;;;;-0.31;100.00;94420.06;1026095;28;20055;-64
2024/02/24 00:11:14;;;;;;;3.10;1.85;;;;;;;-0.32;100.00;94428.03;1031360;28;20474;-63
2024/02/24 00:11:45;;;;;;;4.85;2.20;;;;;;;-0.33;100.00;94422.09;1023337;28;20031;-64
2024/02/24 00:12:15;;;;;;;2.80;1.70;;;;;;;-0.33;100.00;94421.31;1024332;28;20093;-65
2024/02/24 00:12:46;;;;;;;1.63;1.48;;;;;;;-0.37;100.00;94417.59;1027480;28;20078;-63
2024/02/24 00:13:16;;;;;;;1.83;1.60;;;;;;;-0.34;100.00;94422.31;1023076;28;20457;-64
2024/02/24 00:13:47;;;;;;;3.53;1.45;;;;;;;-0.35;100.00;94418.97;1023447;28;20038;-63
2024/02/24 00:14:17;;;;;;;3.75;2.10;;;;;;;-0.34;100.00;94420.50;1027228;28;20035;-64
2024/02/24 00:14:47;;;;;;;4.88;1.83;;;;;;;-0.38;100.00;94416.06;1031403;28;20030;-63
2024/02/24 00:15:18;;;;;;;3.58;1.58;;;;;;;-0.33;100.00;94422.09;1031374;28;20076;-64
2024/02/24 00:15:48;;;;;;;1.95;1.25;;;;;;;-0.33;100.00;94414.38;1031006;28;20505;-64
2024/02/24 00:16:19;;;;;;;1.52;1.40;;;;;;;-0.31;100.00;94416.72;1027190;28;20027;-62
2024/02/24 00:16:49;;;;;;;1.85;1.40;;;;;;;-0.33;100.00;94414.38;1027736;28;20027;-63
2024/02/24 00:17:20;;;;;;;2.15;1.67;;;;;;;-0.33;100.00;94422.09;1035096;28;20033;-63
2024/02/24 00:17:50;;;;;;;3.20;1.73;;;;;;;-0.32;100.00;94417.72;1027443;28;20439;-63
2024/02/24 00:18:21;;;;;;;2.20;1.55;;;;;;;-0.36;100.00;94412.25;1031219;28;20031;-63
2024/02/24 00:18:55;;;;;;;3.03;2.20;;;;;;;-0.33;100.00;94416.94;1027377;28;20026;-64
2024/02/24 00:19:25;;;;;;;2.60;1.55;;;;;;;-0.32;100.00;94413.34;1028573;28;20137;-62
2024/02/24 00:19:56;;;;;;;4.28;1.55;;;;;;;-0.32;100.00;94421.09;1035364;28;20764;-63
2024/02/24 00:20:26;;;;;;;2.30;1.70;;;;;;;-0.33;100.00;94416.94;1031411;28;20386;-64
2024/02/24 00:20:57;;;;;;;2.28;1.42;;;;;;;-0.33;100.00;94416.16;1032704;28;20038;-63
2024/02/24 00:21:27;;;;;;;2.40;1.45;;;;;;;-0.34;100.00;94417.94;1039263;28;20578;-62
2024/02/24 00:21:58;;;;;;;2.40;1.52;;;;;;;-0.34;100.00;94417.94;1035479;28;20044;-63
2024/02/24 00:22:28;;;;;;;3.55;1.63;;;;;;;-0.34;100.00;94420.50;1036456;28;20620;-63
2024/02/24 00:22:59;;;;;;;1.60;1.20;;;;;;;-0.32;100.00;94418.50;1031032;28;20034;-63
2024/02/24 00:23:29;;;;;;;3.40;1.63;;;;;;;-0.32;100.00;94420.31;1031370;28;20034;-64
2024/02/24 00:24:00;;;;;;;1.95;1.20;;;;;;;-0.33;100.00;94416.94;1031266;28;20544;-63
2024/02/24 00:24:31;;;;;;;2.90;1.58;;;;;;;-0.33;100.00;94422.09;1031246;28;20030;-64
2024/02/24 00:25:01;;;;;;;2.92;1.38;;;;;;;-0.32;100.00;94413.34;1029862;28;20034;-64
2024/02/24 00:25:32;;;;;;;3.78;1.50;;;;;;;-0.31;100.00;94420.06;1027368;28;20045;-63
2024/02/24 00:26:02;;;;;;;3.20;1.70;;;;;;;-0.31;100.00;94420.06;1024654;28;20082;-65
2024/02/24 00:26:33;;;;;;;2.35;1.48;;;;;;;-0.32;100.00;94418.50;1023421;28;20495;-64
2024/02/24 00:27:03;;;;;;;2.22;1.30;;;;;;;-0.33;100.00;94422.09;1030094;28;20038;-64
2024/02/24 00:27:34;;;;;;;2.67;1.75;;;;;;;-0.34;100.00;94417.94;1030171;28;20128;-63
2024/02/24 00:28:04;;;;;;;5.57;1.60;;;;;;;-0.39;100.00;94410.13;1034086;28;20018;-64
2024/02/24 00:28:35;;;;;;;2.60;1.80;;;;;;;-0.38;100.00;94414.25;1035290;28;20506;-64
2024/02/24 00:29:05;;;;;;;2.33;1.33;;;;;;;-0.34;100.00;94424.88;1035587;28;20417;-64
2024/02/24 00:29:36;;;;;;;1.67;1.50;;;;;;;-0.35;100.00;94426.69;1035090;28;20552;-63
2024/02/24 00:30:07;;;;;;;3.92;1.52;;;;;;;-0.35;100.00;94421.53;1026872;28;20046;-62
2024/02/24 00:30:38;;;;;;;2.17;1.42;;;;;;;-0.36;100.00;94417.41;1031523;28;20023;-64
2024/02/24 00:31:08;;;;;;;2.88;1.80;;;;;;;-0.40;100.00;94418.88;1031201;28;20270;-64
2024/02/24 00:31:40;;;;;;;1.40;1.30;;;;;;;-0.38;100.00;94424.56;1031933;28;20478;-64
2024/02/24 00:32:11;;;;;;;2.25;1.17;;;;;;;-0.39;100.00;94422.22;1039254;28;20076;-64
2024/02/24 00:32:41;;;;;;;4.65;1.25;;;;;;;-0.44;100.00;94425.47;1030607;28;20375;-63
2024/02/24 00:33:12;;;;;;;2.53;1.48;;;;;;;-0.42;100.00;94418.31;1023215;28;20023;-63
2024/02/24 00:33:42;;;;;;;1.63;1.38;;;;;;;-0.39;100.00;94423.00;1027153;28;20057;-63
2024/02/24 00:34:13;;;;;;;4.28;1.65;;;;;;;-0.41;100.00;94421.66;1023389;28;20043;-64
2024/02/24 00:34:44;;;;;;;2.75;1.65;;;;;;;-0.42;100.00;94426.03;1031600;28;20022;-63
2024/02/24 00:35:17;;;;;;;1.88;1.67;;;;;;;-0.40;100.00;94426.59;1039366;28;20040;-64
2024/02/24 00:35:48;;;;;;;2.13;1.45;;;;;;;-0.39;100.00;94423.00;1039470;28;20318;-63
2024/02/24 00:36:19;;;;;;;1.85;1.50;;;;;;;-0.36;100.00;94427.72;1035140;28;20260;-64
2024/02/24 00:36:49;;;;;;;3.15;1.80;;;;;;;-0.36;100.00;94422.56;1032459;28;20034;-64
2024/02/24 00:37:20;;;;;;;2.08;1.50;;;;;;;-0.35;100.00;94423.34;1039587;28;20718;-63
2024/02/24 00:37:50;;;;;;;6.30;1.20;;;;;;;-0.32;100.00;94418.50;1035752;28;20025;-64
2024/02/24 00:38:21;;;;;;;2.53;1.70;;;;;;;-0.33;100.00;94424.69;1039642;28;20025;-63
2024/02/24 00:38:51;;;;;;;2.65;1.65;;;;;;;-0.32;100.00;94415.94;1035494;28;20033;-63
2024/02/24 00:39:22;;;;;;;4.78;1.17;;;;;;;-0.31;100.00;94420.06;1031506;28;20022;-63
2024/02/24 00:39:52;;;;;;;2.53;1.60;;;;;;;-0.30;100.00;94421.66;1039684;28;20025;-63
2024/02/24 00:40:23;;;;;;;2.08;1.48;;;;;;;-0.30;100.00;94421.66;1035180;28;20557;-64
2024/02/24 00:40:53;;;;;;;2.92;1.77;;;;;;;-0.32;100.00;94418.50;1039783;28;20528;-64
2024/02/24 00:41:24;;;;;;;6.10;2.08;;;;;;;-0.29;100.00;94417.28;1038635;28;20628;-63
2024/02/24 00:41:54;;;;;;;2.42;1.30;;;;;;;-0.30;100.00;94420.88;1031650;28;20023;-64
2024/02/24 00:42:25;;;;;;;2.63;1.10;;;;;;;-0.30;100.00;94418.28;1031805;28;20473;-64
2024/02/24 00:42:55;;;;;;;6.15;1.65;;;;;;;-0.30;100.00;94419.06;1031611;28;20098;-63
2024/02/24 00:43:26;;;;;;;1.75;1.30;;;;;;;-0.29;100.00;94418.06;1035538;28;20801;-63
2024/02/24 00:43:56;;;;;;;3.90;1.33;;;;;;;-0.27;100.00;94417.81;1043738;28;20091;-64
2024/02/24 00:44:26;;;;;;;1.25;1.05;;;;;;;-0.27;100.00;94417.81;1039541;28;20064;-64
2024/02/24 00:44:57;;;;;;;1.33;1.15;;;;;;;-0.27;100.00;94421.19;1039415;28;20028;-63
2024/02/24 00:45:27;;;;;;;1.63;1.00;;;;;;;-0.27;100.00;94421.19;1035438;28;20022;-64
2024/02/24 00:45:58;;;;;;;2.38;1.10;;;;;;;-0.27;100.00;94421.19;1031115;28;20062;-62
2024/02/24 00:46:29;;;;;;;2.63;1.70;;;;;;;-0.24;100.00;94414.78;1031441;28;20045;-63
2024/02/24 00:46:59;;;;;;;2.45;1.17;;;;;;;-0.21;100.00;94423.88;1031140;28;20712;-64
2024/02/24 00:47:30;;;;;;;1.67;1.20;;;;;;;-0.19;100.00;94421.84;1035307;28;20034;-63
2024/02/24 00:48:00;;;;;;;2.40;1.17;;;;;;;-0.18;100.00;94418.25;1035602;28;20018;-64
2024/02/24 00:48:31;;;;;;;1.50;1.08;;;;;;;-0.18;100.00;94418.25;1039266;28;20029;-64
2024/02/24 00:49:01;;;;;;;2.20;1.33;;;;;;;-0.18;100.00;94419.03;1035163;28;20014;-64
2024/02/24 00:49:32;;;;;;;1.83;1.08;;;;;;;-0.18;100.00;94418.25;1037836;28;20052;-64
2024/02/24 00:50:02;;;;;;;1.90;1.08;;;;;;;-0.18;100.00;94418.25;1038940;28;20025;-64
2024/02/24 00:50:33;;;;;;;1.48;1.20;;;;;;;-0.21;100.00;94419.50;1035036;28;20564;-65
2024/02/24 00:51:03;;;;;;;1.83;1.10;;;;;;;-0.19;100.00;94419.28;1039300;28;20433;-63
2024/02/24 00:51:34;;;;;;;2.33;1.10;;;;;;;-0.18;100.00;94418.25;1035253;28;20028;-63
2024/02/24 00:52:04;;;;;;;1.40;0.98;;;;;;;-0.19;100.00;94421.84;1033932;28;20018;-63
2024/02/24 00:52:35;;;;;;;2.33;1.10;;;;;;;-0.18;100.00;94418.25;1031061;28;20096;-65
2024/02/24 00:53:05;;;;;;;3.08;1.30;;;;;;;-0.19;100.00;94420.06;1027052;28;20089;-64
2024/02/24 00:53:36;;;;;;;2.67;1.23;;;;;;;-0.20;100.00;94417.69;1023305;28;20027;-64
2024/02/24 00:54:06;;;;;;;1.92;1.30;;;;;;;-0.20;100.00;94417.69;1027322;28;20807;-64
2024/02/24 00:54:37;;;;;;;1.42;1.10;;;;;;;-0.25;100.00;94416.59;1027354;28;20514;-64
2024/02/24 00:55:08;;;;;;;2.63;1.08;;;;;;;-0.21;100.00;94410.97;1027088;28;20109;-61
2024/02/24 00:55:39;;;;;;;3.65;1.17;;;;;;;-0.28;100.00;94403.38;1027251;28;20277;-64
2024/02/24 00:56:09;;;;;;;1.08;0.90;;;;;;;-0.24;100.00;94412.97;1027688;28;20023;-64
2024/02/24 00:56:40;;;;;;;2.80;1.20;;;;;;;-0.24;100.00;94410.41;1027282;28;20038;-64
2024/02/24 00:57:10;;;;;;;1.88;1.20;;;;;;;-0.24;100.00;94407.84;1030980;28;20772;-64
2024/02/24 00:57:41;;;;;;;1.83;1.15;;;;;;;-0.14;100.00;94412.41;1027255;28;20026;-64
2024/02/24 00:58:11;;;;;;;1.75;1.00;;;;;;;-0.11;100.00;94411.16;1031209;28;20498;-63
2024/02/24 00:58:41;;;;;;;2.80;0.82;;;;;;;-0.11;100.00;94413.75;1027108;28;20026;-64
2024/02/24 00:59:12;;;;;;;1.40;0.90;;;;;;;-0.05;100.00;94408.47;1019139;28;20449;-63
2024/02/24 00:59:42;;;;;;;2.13;1.08;;;;;;;-0.01;100.00;94406.22;1027097;28;20026;-63
2024/02/24 01:00:13;;;;;;;2.78;1.20;;;;;;;0.01;100.00;94411.94;1026688;28;20105;-62
2024/02/24 01:00:44;;;;;;;3.20;1.17;;;;;;;0.02;100.00;94408.34;1031210;28;20080;-63
2024/02/24 01:01:14;;;;;;;2.65;1.17;;;;;;;0.04;100.00;94410.69;1030991;28;20038;-63
2024/02/24 01:01:45;;;;;;;1.20;1.02;;;;;;;0.00;100.00;94405.22;1027499;28;20030;-64
2024/02/24 01:02:15;;;;;;;2.17;1.13;;;;;;;-0.04;100.00;94396.34;1028318;28;20022;-63
2024/02/24 01:02:46;;;;;;;1.83;0.82;;;;;;;-0.01;100.00;94395.91;1023673;28;20042;-62
2024/02/24 01:03:16;;;;;;;3.47;0.85;;;;;;;-0.01;100.00;94403.63;1030905;28;20022;-64
2024/02/24 01:03:47;;;;;;;1.38;0.88;;;;;;;0.01;100.00;94404.19;1023122;28;20050;-63
2024/02/24 01:04:17;;;;;;;2.15;1.20;;;;;;;0.02;100.00;94405.75;1031363;28;20022;-64
2024/02/24 01:04:52;;;;;;;3.00;1.20;;;;;;;0.02;100.00;94403.19;1035064;28;20441;-64
2024/02/24 01:05:22;;;;;;;2.60;1.10;;;;;;;0.01;100.00;94399.03;1032021;28;20022;-64
2024/02/24 01:05:53;;;;;;;2.75;1.00;;;;;;;0.02;100.00;94397.25;1039301;28;20268;-64
2024/02/24 01:06:23;;;;;;;1.80;0.93;;;;;;;0.01;100.00;94403.41;1039273;28;20398;-63
2024/02/24 01:06:54;;;;;;;2.92;1.25;;;;;;;0.01;100.00;94400.84;1035212;28;20026;-64
2024/02/24 01:07:24;;;;;;;2.30;1.13;;;;;;;0.01;100.00;94401.63;1030858;28;20128;-63
2024/02/24 01:07:56;;;;;;;1.92;0.88;;;;;;;-0.01;100.00;94401.84;1031059;28;20011;-63
2024/02/24 01:08:26;;;;;;;1.75;1.23;;;;;;;-0.04;100.00;94402.28;1035646;28;20041;-64
2024/02/24 01:08:57;;;;;;;3.10;1.50;;;;;;;-0.04;100.00;94391.19;1034684;28;20264;-63
2024/02/24 01:09:27;;;;;;;3.30;1.33;;;;;;;-0.04;100.00;94396.34;1023033;28;20023;-63
2024/02/24 01:09:58;;;;;;;1.90;1.48;;;;;;;-0.04;100.00;94396.34;1027339;28;20390;-63
2024/02/24 01:10:29;;;;;;;2.78;1.60;;;;;;;-0.06;100.00;94393.25;1026848;28;20066;-62
2024/02/24 01:10:59;;;;;;;3.10;1.65;;;;;;;-0.07;100.00;94394.22;1031534;28;20288;-64
2024/02/24 01:11:31;;;;;;;4.55;1.60;;;;;;;-0.12;100.00;94386.41;1039387;28;20683;-63
2024/02/24 01:12:02;;;;;;;3.95;1.70;;;;;;;-0.10;100.00;94394.69;1035307;28;20048;-64
2024/02/24 01:12:32;;;;;;;6.60;1.85;;;;;;;-0.11;100.00;94390.56;1031625;28;20273;-64
2024/02/24 01:13:03;;;;;;;3.58;1.60;;;;;;;-0.12;100.00;94394.94;1035205;28;20814;-64
2024/02/24 01:13:33;;;;;;;5.75;2.15;;;;;;;-0.12;100.00;94397.50;1036418;28;20022;-64
2024/02/24 01:14:04;;;;;;;6.40;1.90;;;;;;;-0.10;100.00;94394.69;1039554;28;20029;-64
2024/02/24 01:14:34;;;;;;;2.85;1.70;;;;;;;-0.10;100.00;94397.25;1035475;28;20029;-64
2024/02/24 01:15:05;;;;;;;2.70;1.98;;;;;;;-0.10;100.00;94405.81;1039521;28;20037;-64
2024/02/24 01:15:36;;;;;;;3.05;1.85;;;;;;;-0.09;100.00;94393.69;1035930;28;20021;-64
2024/02/24 01:16:06;;;;;;;2.58;1.50;;;;;;;-0.06;100.00;94400.97;1035420;28;20026;-63
2024/02/24 01:16:39;;;;;;;2.63;1.38;;;;;;;-0.04;100.00;94404.09;1031532;28;20030;-64
2024/02/24 01:17:10;;;;;;;3.28;1.33;;;;;;;-0.04;100.00;94398.94;1031119;28;20029;-64
2024/02/24 01:17:41;;;;;;;1.35;1.02;;;;;;;-0.02;100.00;94402.06;1031537;28;20305;-64
2024/02/24 01:18:11;;;;;;;2.25;1.17;;;;;;;-0.04;100.00;94401.50;1035739;28;20026;-63
2024/02/24 01:18:41;;;;;;;2.95;1.63;;;;;;;-0.20;100.00;94373.88;1026956;28;20057;-63
2024/02/24 01:19:12;;;;;;;2.45;1.70;;;;;;;-0.02;100.00;94407.22;1033456;28;20080;-63
2024/02/24 01:19:42;;;;;;;1.27;0.95;;;;;;;0.01;100.00;94406.78;1031086;28;20069;-63
2024/02/24 01:20:13;;;;;;;2.47;1.38;;;;;;;-0.09;100.00;94394.47;1026198;28;20038;-63
2024/02/24 01:20:48;;;;;;;4.15;1.20;;;;;;;-0.06;100.00;94406.91;1027148;28;20030;-63
2024/02/24 01:21:18;;;;;;;2.33;1.50;;;;;;;-0.02;100.00;94412.38;1031480;28;20540;-63
2024/02/24 01:21:49;;;;;;;1.83;1.00;;;;;;;-0.03;100.00;94414.19;1031602;28;20262;-64
2024/02/24 01:22:19;;;;;;;1.42;1.00;;;;;;;-0.01;100.00;94408.78;1030614;28;20030;-63
2024/02/24 01:22:53;;;;;;;1.63;1.02;;;;;;;-0.04;100.00;94404.88;1026662;28;20030;-64
2024/02/24 01:23:24;;;;;;;2.42;1.13;;;;;;;0.00;100.00;94410.38;1031093;28;20053;-64
2024/02/24 01:23:55;;;;;;;1.42;0.98;;;;;;;0.00;100.00;94415.53;1024278;28;20282;-63
2024/02/24 01:24:25;;;;;;;2.10;0.98;;;;;;;0.03;100.00;94416.84;1023889;28;20751;-63
2024/02/24 01:24:56;;;;;;;1.35;1.08;;;;;;;0.03;100.00;94411.69;1031740;28;20080;-63
2024/02/24 01:25:26;;;;;;;1.95;1.02;;;;;;;0.05;100.00;94415.63;1030835;28;20529;-62
2024/02/24 01:25:57;;;;;;;4.20;1.20;;;;;;;0.05;100.00;94418.19;1035088;28;20034;-63
2024/02/24 01:26:27;;;;;;;1.75;1.00;;;;;;;0.03;100.00;94407.31;1038833;28;20034;-61
2024/02/24 01:26:58;;;;;;;1.30;1.05;;;;;;;0.02;100.00;94418.66;1039046;28;20018;-63
2024/02/24 01:27:28;;;;;;;2.15;1.20;;;;;;;0.04;100.00;94411.47;1039330;28;20025;-63
2024/02/24 01:28:00;;;;;;;2.17;1.00;;;;;;;0.05;100.00;94412.25;1039318;28;20017;-64
2024/02/24 01:28:30;;;;;;;3.10;0.85;;;;;;;0.03;100.00;94412.47;1034724;28;20036;-63
2024/02/24 01:29:01;;;;;;;1.60;0.80;;;;;;;0.03;100.00;94409.88;1035093;28;20637;-63
2024/02/24 01:29:31;;;;;;;2.20;1.08;;;;;;;0.03;100.00;94409.88;1034763;28;20437;-63
2024/02/24 01:30:02;;;;;;;1.08;0.98;;;;;;;0.02;100.00;94410.91;1031379;28;20029;-63
2024/02/24 01:30:32;;;;;;;1.73;0.90;;;;;;;0.03;100.00;94409.13;1030160;28;20053;-63
2024/02/24 01:31:03;;;;;;;2.65;1.15;;;;;;;0.03;100.00;94406.53;1028498;28;20498;-63
2024/02/24 01:31:33;;;;;;;1.42;0.93;;;;;;;0.03;100.00;94409.13;1027365;28;20022;-63
2024/02/24 01:32:04;;;;;;;1.65;1.10;;;;;;;0.02;100.00;94408.34;1030786;28;20112;-63
2024/02/24 01:32:35;;;;;;;2.50;1.13;;;;;;;0.03;100.00;94406.53;1030422;28;20458;-63
2024/02/24 01:33:05;;;;;;;1.85;1.20;;;;;;;-0.06;100.00;94401.75;1035306;28;20018;-63
2024/02/24 01:33:36;;;;;;;0.90;0.68;;;;;;;0.02;100.00;94403.19;1028242;28;20118;-63
2024/02/24 01:34:06;;;;;;;2.47;1.30;;;;;;;0.01;100.00;94401.63;1026919;28;20063;-63
2024/02/24 01:34:37;;;;;;;3.17;1.05;;;;;;;0.01;100.00;94400.84;1026401;28;20023;-63
2024/02/24 01:35:07;;;;;;;1.10;0.88;;;;;;;-0.03;100.00;94396.13;1026255;28;20081;-63
2024/02/24 01:35:38;;;;;;;1.23;0.88;;;;;;;0.03;100.00;94403.94;1023474;28;20034;-63
2024/02/24 01:36:08;;;;;;;1.48;0.82;;;;;;;0.01;100.00;94395.69;1028364;28;20550;-63
2024/02/24 01:36:39;;;;;;;2.42;0.88;;;;;;;0.02;100.00;94395.44;1026603;28;20027;-65
2024/02/24 01:37:09;;;;;;;3.80;1.08;;;;;;;0.03;100.00;94402.16;1026959;28;20022;-63
2024/02/24 01:37:40;;;;;;;1.92;0.93;;;;;;;0.02;100.00;94397.25;1023090;28;20027;-63
2024/02/24 01:38:11;;;;;;;1.50;1.00;;;;;;;-0.03;100.00;94393.56;1031221;28;20022;-64
2024/02/24 01:38:41;;;;;;;0.85;0.80;;;;;;;0.03;100.00;94398.78;1030582;28;20478;-66
2024/02/24 01:39:11;;;;;;;1.50;0.80;;;;;;;-0.06;100.00;94390.66;1030967;28;20023;-63
2024/02/24 01:39:42;;;;;;;2.05;1.00;;;;;;;0.00;100.00;94394.91;1030055;28;20102;-63
2024/02/24 01:40:12;;;;;;;2.72;1.15;;;;;;;0.02;100.00;94394.66;1026462;28;20398;-64
2024/02/24 01:40:43;;;;;;;1.85;1.23;;;;;;;0.01;100.00;94385.38;1026687;28;20023;-63
2024/02/24 01:41:13;;;;;;;1.20;0.80;;;;;;;0.04;100.00;94390.06;1030782;28;20077;-63
2024/02/24 01:41:44;;;;;;;2.50;1.15;;;;;;;0.04;100.00;94385.69;1030817;28;20575;-64
2024/02/24 01:42:14;;;;;;;2.28;1.00;;;;;;;0.04;100.00;94384.91;1030879;28;20022;-64
2024/02/24 01:42:45;;;;;;;1.40;0.80;;;;;;;0.03;100.00;94393.63;1030587;28;20046;-62
2024/02/24 01:43:22;;;;;;;2.40;0.93;;;;;;;0.07;100.00;94395.53;1026851;28;20027;-63
2024/02/24 01:43:53;;;;;;;1.35;0.90;;;;;;;0.08;100.00;94398.91;1033690;28;20069;-64
2024/02/24 01:44:23;;;;;;;2.03;1.20;;;;;;;0.01;100.00;94385.38;1035273;28;20277;-64
2024/02/24 01:44:54;;;;;;;1.15;0.85;;;;;;;0.06;100.00;94399.13;1029372;28;20411;-63
2024/02/24 01:45:25;;;;;;;2.38;1.10;;;;;;;0.04;100.00;94396.00;1035338;28;20030;-63
2024/02/24 01:45:56;;;;;;;1.35;0.90;;;;;;;0.06;100.00;94399.13;1027142;28;20014;-64
2024/02/24 01:46:27;;;;;;;1.98;1.20;;;;;;;0.06;100.00;94401.69;1031225;28;20289;-63
2024/02/24 01:46:57;;;;;;;1.92;0.90;;;;;;;0.01;100.00;94396.47;1033630;28;20679;-64
2024/02/24 01:47:28;;;;;;;1.17;0.80;;;;;;;0.09;100.00;94408.19;1027105;28;20031;-62
2024/02/24 01:47:59;;;;;;;2.50;0.90;;;;;;;0.07;100.00;94416.19;1027009;28;20022;-63
2024/02/24 01:48:30;;;;;;;2.63;1.10;;;;;;;0.04;100.00;94411.47;1025681;28;20031;-64
2024/02/24 01:49:01;;;;;;;2.80;1.20;;;;;;;0.05;100.00;94418.19;1030774;28;20094;-63
2024/02/24 01:49:31;;;;;;;0.80;0.80;;;;;;;0.05;100.00;94410.47;1026862;28;20278;-63
2024/02/24 01:50:02;;;;;;;1.80;1.20;;;;;;;0.09;100.00;94408.97;1018465;28;20036;-62
2024/02/24 01:50:32;;;;;;;1.38;1.20;;;;;;;0.05;100.00;94410.47;1018569;29;20131;-65
2024/02/24 01:51:03;;;;;;;2.70;1.05;;;;;;;0.02;100.00;94407.56;1018824;29;20435;-63
2024/02/24 01:51:33;;;;;;;1.50;1.17;;;;;;;-0.05;100.00;94408.47;1026680;28;20033;-63
2024/02/24 01:52:05;;;;;;;2.30;1.27;;;;;;;0.01;100.00;94417.09;1029671;28;20104;-63
2024/02/24 01:52:36;;;;;;;1.67;0.90;;;;;;;-0.04;100.00;94407.44;1030826;28;20091;-64
2024/02/24 01:53:06;;;;;;;1.58;1.08;;;;;;;0.01;100.00;94406.78;1027039;28;20282;-64
2024/02/24 01:53:37;;;;;;;1.60;0.98;;;;;;;0.00;100.00;94410.38;1027343;28;20266;-63
2024/02/24 01:54:07;;;;;;;1.35;0.95;;;;;;;-0.08;100.00;94406.34;1034773;28;20410;-63
2024/02/24 01:54:38;;;;;;;1.80;0.82;;;;;;;-0.03;100.00;94411.59;1027160;28;20279;-63
2024/02/24 01:55:08;;;;;;;1.40;1.05;;;;;;;-0.12;100.00;94400.09;1030495;28;20081;-63
2024/02/24 01:55:39;;;;;;;1.67;0.90;;;;;;;-0.08;100.00;94405.56;1026607;28;20042;-63
2024/02/24 01:56:09;;;;;;;1.85;1.20;;;;;;;-0.06;100.00;94406.91;1022821;29;20074;-63
2024/02/24 01:56:40;;;;;;;2.70;1.10;;;;;;;-0.07;100.00;94407.13;1022760;29;20044;-64
2024/02/24 01:57:10;;;;;;;1.35;0.73;;;;;;;-0.07;100.00;94404.53;1022736;28;20139;-64
2024/02/24 01:57:44;;;;;;;1.10;0.98;;;;;;;-0.06;100.00;94406.91;1026883;28;20031;-63
2024/02/24 01:58:15;;;;;;;2.50;0.90;;;;;;;-0.05;100.00;94402.53;1026895;28;20039;-65
2024/02/24 01:58:45;;;;;;;3.33;1.35;;;;;;;-0.06;100.00;94400.97;1025001;28;20306;-67
2024/02/24 01:59:15;;;;;;;1.17;0.93;;;;;;;-0.09;100.00;94402.22;1026330;28;20027;-64
2024/02/24 01:59:46;;;;;;;1.83;1.10;;;;;;;-0.07;100.00;94407.13;1028006;28;20526;-63
2024/02/24 02:00:16;;;;;;;1.00;0.90;;;;;;;-0.07;100.00;94405.34;1026792;28;20027;-66
2024/02/24 02:00:47;;;;;;;1.75;1.08;;;;;;;-0.07;100.00;94409.69;1031063;28;20493;-64
2024/02/24 02:01:18;;;;;;;2.80;1.30;;;;;;;-0.10;100.00;94394.69;1031134;28;20139;-66
2024/02/24 02:01:48;;;;;;;1.85;1.17;;;;;;;-0.14;100.00;94398.75;1027090;28;20031;-64
2024/02/24 02:02:18;;;;;;;5.30;1.20;;;;;;;-0.10;100.00;94413.53;1030245;28;20027;-64
2024/02/24 02:02:49;;;;;;;1.40;1.08;;;;;;;-0.15;100.00;94399.75;1031023;28;20023;-64
2024/02/24 02:03:19;;;;;;;1.08;0.95;;;;;;;-0.13;100.00;94402.91;1031013;28;20023;-64
2024/02/24 02:03:50;;;;;;;1.55;1.00;;;;;;;-0.11;100.00;94400.88;1032328;28;20034;-64
2024/02/24 02:04:20;;;;;;;2.00;0.90;;;;;;;-0.10;100.00;94410.16;1026665;29;20034;-64
2024/02/24 02:04:51;;;;;;;1.58;1.02;;;;;;;-0.13;100.00;94411.41;1023470;29;20023;-63
2024/02/24 02:05:21;;;;;;;1.30;1.00;;;;;;;-0.13;100.00;94411.41;1023177;28;20030;-63
2024/02/24 02:05:52;;;;;;;1.40;0.80;;;;;;;-0.13;100.00;94411.41;1022937;28;20034;-63
2024/02/24 02:06:24;;;;;;;4.00;1.00;;;;;;;-0.14;100.00;94412.41;1030852;28;20073;-64
2024/02/24 02:06:54;;;;;;;1.25;0.70;;;;;;;-0.19;100.00;94401.22;1026861;28;20039;-64
2024/02/24 02:07:25;;;;;;;1.02;0.90;;;;;;;-0.15;100.00;94413.44;1021998;28;20674;-61
2024/02/24 02:07:55;;;;;;;1.98;1.20;;;;;;;-0.16;100.00;94411.88;1022719;28;20027;-63
2024/02/24 02:08:26;;;;;;;1.75;1.20;;;;;;;-0.18;100.00;94413.09;1022736;29;20035;-63
2024/02/24 02:08:57;;;;;;;1.20;0.82;;;;;;;-0.17;100.00;94412.84;1022829;28;20446;-64
2024/02/24 02:09:27;;;;;;;2.42;1.13;;;;;;;-0.19;100.00;94417.47;1030890;28;20069;-63
2024/02/24 02:09:58;;;;;;;1.77;1.25;;;;;;;-0.19;100.00;94414.91;1035132;28;20022;-64
2024/02/24 02:10:48;;;;;;;2.03;0.93;;;;;;;-0.21;100.00;94405.81;1026194;28;20034;-63
2024/02/24 02:11:18;;;;;;;2.45;1.20;;;;;;;-0.18;100.00;94413.88;1026889;28;20270;-63
2024/02/24 02:11:49;;;;;;;1.45;0.98;;;;;;;-0.19;100.00;94417.47;1022708;29;20703;-63
2024/02/24 02:12:19;;;;;;;1.70;0.82;;;;;;;-0.20;100.00;94421.06;1027739;28;20082;-63
2024/02/24 02:12:50;;;;;;;2.92;1.15;;;;;;;-0.22;100.00;94422.31;1030909;28;20395;-63
2024/02/24 02:13:21;;;;;;;1.48;1.10;;;;;;;-0.24;100.00;94415.56;1030764;28;20077;-63
2024/02/24 02:13:51;;;;;;;1.90;1.02;;;;;;;-0.25;100.00;94419.16;1031279;28;20101;-63
2024/02/24 02:14:22;;;;;;;3.47;1.25;;;;;;;-0.25;100.00;94421.75;1038754;28;21023;-63
2024/02/24 02:14:52;;;;;;;1.98;1.02;;;;;;;-0.28;100.00;94419.63;1030605;28;20023;-64
2024/02/24 02:15:23;;;;;;;3.00;1.17;;;;;;;-0.25;100.00;94419.16;1027015;28;20222;-63
2024/02/24 02:15:55;;;;;;;1.35;0.95;;;;;;;-0.22;100.00;94419.72;1029678;28;20573;-64
2024/02/24 02:16:26;;;;;;;1.48;0.98;;;;;;;-0.22;100.00;94424.88;1023115;28;20102;-63
2024/02/24 02:16:56;;;;;;;2.55;1.20;;;;;;;-0.24;100.00;94415.56;1027178;28;20773;-63
2024/02/24 02:17:27;;;;;;;1.95;1.25;;;;;;;-0.26;100.00;94417.59;1032714;28;20035;-63
2024/02/24 02:17:57;;;;;;;1.70;1.02;;;;;;;-0.27;100.00;94417.81;1031039;28;20077;-62
2024/02/24 02:18:28;;;;;;;2.60;1.10;;;;;;;-0.26;100.00;94421.97;1030487;28;20525;-64
2024/02/24 02:18:58;;;;;;;1.60;1.10;;;;;;;-0.32;100.00;94413.34;1027023;28;20398;-64
2024/02/24 02:19:29;;;;;;;3.50;1.20;;;;;;;-0.29;100.00;94418.06;1030866;28;20042;-63
2024/02/24 02:20:02;;;;;;;1.38;0.80;;;;;;;-0.33;100.00;94406.63;1034968;28;20029;-64
2024/02/24 02:20:33;;;;;;;1.65;1.27;;;;;;;-0.34;100.00;94406.84;1027319;28;20074;-64
2024/02/24 02:21:04;;;;;;;1.27;0.93;;;;;;;-0.29;100.00;94412.13;1030171;28;20320;-64
2024/02/24 02:21:35;;;;;;;1.13;0.95;;;;;;;-0.28;100.00;94414.47;1022730;29;20060;-64
2024/02/24 02:22:10;;;;;;;1.45;1.23;;;;;;;-0.27;100.00;94410.09;1022358;29;20666;-62
2024/02/24 02:22:40;;;;;;;4.28;1.10;;;;;;;-0.20;100.00;94409.97;1029443;28;20777;-63
2024/02/24 02:23:11;;;;;;;1.27;0.80;;;;;;;-0.19;100.00;94416.69;1028628;28;20261;-61